^^
Meteo Knjazevac Station Historical Data
Daily Summary for June 9, 2022 Units:  Both    English   Metric
Daily Weekly Monthly Yearly Custom
  High: Low: Average:
Temperature: 91.9 °F /  33.3 °C 67.3 °F /  19.6 °C 78 °F /  25.6 °C
Dew Point: 69.6 °F /  20.9 °C 61.3 °F /  16.3 °C 64.7 °F /  18.2 °C
Humidity: 86% 39% 66%
Wind Speed: 8mph /  12.9km/h - 2.4mph /  3.9km/h
Wind Gust: 16mph /  25.7km/h - -
Wind- - South
Pressure: 30.12 in /  1019.9 hPa 30.02 in /  1016.5 hPa -
Precipitation: 0.00 in /  0 mm    
Historical Graphs
 
 
Tabular Data for June 9, 2022
Time Temperature Dew Point Pressure Wind Wind Speed Wind Gust Humidity Rainfall Rate (Hourly) solar Conditions
00:00 70.6 °F /  21.4 °C 61.9 °F /  16.6 °C 30.08in /  1018.5hPa North 2mph /  3.2km/h 5mph /  8km/h 74% 0.00in /  0mm 0 W/m2
00:05 70.3 °F /  21.3 °C 62 °F /  16.7 °C 30.08in /  1018.5hPa Calm   3mph /  4.8km/h 75% 0.00in /  0mm 0 W/m2
00:10 70.2 °F /  21.2 °C 61.9 °F /  16.6 °C 30.08in /  1018.5hPa NE 1mph /  1.6km/h 2mph /  3.2km/h 75% 0.00in /  0mm 0 W/m2
00:15 70.2 °F /  21.2 °C 61.9 °F /  16.6 °C 30.08in /  1018.5hPa NW 1mph /  1.6km/h 2mph /  3.2km/h 75% 0.00in /  0mm 0 W/m2
00:20 70 °F /  21.1 °C 61.7 °F /  16.5 °C 30.08in /  1018.5hPa WSW 1mph /  1.6km/h 2mph /  3.2km/h 75% 0.00in /  0mm 0 W/m2
00:25 69.8 °F /  21 °C 62.3 °F /  16.8 °C 30.08in /  1018.5hPa Calm   2mph /  3.2km/h 77% 0.00in /  0mm 0 W/m2
00:30 69.6 °F /  20.9 °C 62.1 °F /  16.7 °C 30.08in /  1018.5hPa SE 2mph /  3.2km/h 5mph /  8km/h 77% 0.00in /  0mm 0 W/m2
00:35 69.4 °F /  20.8 °C 61.9 °F /  16.6 °C 30.08in /  1018.5hPa Calm   2mph /  3.2km/h 77% 0.00in /  0mm 0 W/m2
00:40 69.4 °F /  20.8 °C 62.2 °F /  16.8 °C 30.08in /  1018.5hPa East 2mph /  3.2km/h 5mph /  8km/h 78% 0.00in /  0mm 0 W/m2
00:45 69.2 °F /  20.7 °C 62 °F /  16.7 °C 30.08in /  1018.5hPa SSE 1mph /  1.6km/h 3mph /  4.8km/h 78% 0.00in /  0mm 0 W/m2
00:55 68.9 °F /  20.5 °C 61.8 °F /  16.6 °C 30.08in /  1018.5hPa West 1mph /  1.6km/h 2mph /  3.2km/h 78% 0.00in /  0mm 0 W/m2
01:00 68.7 °F /  20.4 °C 61.6 °F /  16.4 °C 30.08in /  1018.5hPa Calm   2mph /  3.2km/h 78% 0.00in /  0mm 0 W/m2
01:05 68.7 °F /  20.4 °C 61.9 °F /  16.6 °C 30.08in /  1018.5hPa Calm     79% 0.00in /  0mm 0 W/m2
01:15 68.5 °F /  20.3 °C 61.8 °F /  16.6 °C 30.08in /  1018.5hPa WNW 1mph /  1.6km/h 2mph /  3.2km/h 79% 0.00in /  0mm 0 W/m2
01:25 68.2 °F /  20.1 °C 61.4 °F /  16.3 °C 30.08in /  1018.5hPa Calm   2mph /  3.2km/h 79% 0.00in /  0mm 0 W/m2
01:30 68.2 °F /  20.1 °C 61.4 °F /  16.3 °C 30.08in /  1018.5hPa WNW 1mph /  1.6km/h 2mph /  3.2km/h 79% 0.00in /  0mm 0 W/m2
01:35 68.1 °F /  20.1 °C 61.3 °F /  16.3 °C 30.09in /  1018.8hPa Calm   2mph /  3.2km/h 79% 0.00in /  0mm 0 W/m2
01:40 68.2 °F /  20.1 °C 61.8 °F /  16.6 °C 30.09in /  1018.8hPa Calm   2mph /  3.2km/h 80% 0.00in /  0mm 0 W/m2
01:45 68 °F /  20 °C 61.6 °F /  16.4 °C 30.09in /  1018.8hPa Calm   2mph /  3.2km/h 80% 0.00in /  0mm 0 W/m2
01:50 68.2 °F /  20.1 °C 61.8 °F /  16.6 °C 30.09in /  1018.8hPa Calm   2mph /  3.2km/h 80% 0.00in /  0mm 0 W/m2
01:55 68.2 °F /  20.1 °C 61.8 °F /  16.6 °C 30.09in /  1018.8hPa Calm   1mph /  1.6km/h 80% 0.00in /  0mm 0 W/m2
02:00 68.2 °F /  20.1 °C 61.8 °F /  16.6 °C 30.09in /  1018.8hPa Calm   2mph /  3.2km/h 80% 0.00in /  0mm 0 W/m2
02:05 68.2 °F /  20.1 °C 61.8 °F /  16.6 °C 30.09in /  1018.8hPa Calm   3mph /  4.8km/h 80% 0.00in /  0mm 0 W/m2
02:10 68.2 °F /  20.1 °C 62.1 °F /  16.7 °C 30.09in /  1018.8hPa ESE 1mph /  1.6km/h 3mph /  4.8km/h 81% 0.00in /  0mm 0 W/m2
02:15 68.2 °F /  20.1 °C 62.1 °F /  16.7 °C 30.09in /  1018.8hPa SE 2mph /  3.2km/h 4mph /  6.4km/h 81% 0.00in /  0mm 0 W/m2
02:25 68 °F /  20 °C 61.9 °F /  16.6 °C 30.09in /  1018.8hPa NE 1mph /  1.6km/h 3mph /  4.8km/h 81% 0.00in /  0mm 0 W/m2
02:30 68.2 °F /  20.1 °C 62.1 °F /  16.7 °C 30.09in /  1018.8hPa ENE 1mph /  1.6km/h 3mph /  4.8km/h 81% 0.00in /  0mm 0 W/m2
02:35 68.2 °F /  20.1 °C 62.1 °F /  16.7 °C 30.09in /  1018.8hPa NNE 1mph /  1.6km/h 2mph /  3.2km/h 81% 0.00in /  0mm 0 W/m2
02:40 68.4 °F /  20.2 °C 61.9 °F /  16.6 °C 30.09in /  1018.8hPa NW 2mph /  3.2km/h 3mph /  4.8km/h 80% 0.00in /  0mm 0 W/m2
02:50 68.5 °F /  20.3 °C 62.5 °F /  16.9 °C 30.09in /  1018.8hPa West 1mph /  1.6km/h 2mph /  3.2km/h 81% 0.00in /  0mm 0 W/m2
03:00 68.6 °F /  20.3 °C 62.2 °F /  16.8 °C 30.09in /  1018.8hPa Calm   2mph /  3.2km/h 80% 0.00in /  0mm 0 W/m2
03:05 68.7 °F /  20.4 °C 62.3 °F /  16.8 °C 30.09in /  1018.8hPa Calm   2mph /  3.2km/h 80% 0.00in /  0mm 0 W/m2
03:10 68.7 °F /  20.4 °C 62.3 °F /  16.8 °C 30.09in /  1018.8hPa Calm   2mph /  3.2km/h 80% 0.00in /  0mm 0 W/m2
03:15 68.7 °F /  20.4 °C 62.3 °F /  16.8 °C 30.09in /  1018.8hPa WNW 1mph /  1.6km/h 2mph /  3.2km/h 80% 0.00in /  0mm 0 W/m2
03:20 68.7 °F /  20.4 °C 62.3 °F /  16.8 °C 30.09in /  1018.8hPa NW 1mph /  1.6km/h 2mph /  3.2km/h 80% 0.00in /  0mm 0 W/m2
03:25 68.9 °F /  20.5 °C 62.5 °F /  16.9 °C 30.09in /  1018.8hPa WNW 1mph /  1.6km/h 2mph /  3.2km/h 80% 0.00in /  0mm 0 W/m2
03:30 68.9 °F /  20.5 °C 62.5 °F /  16.9 °C 30.09in /  1018.8hPa WNW 1mph /  1.6km/h 2mph /  3.2km/h 80% 0.00in /  0mm 0 W/m2
03:35 68.7 °F /  20.4 °C 62.3 °F /  16.8 °C 30.09in /  1018.8hPa Calm   2mph /  3.2km/h 80% 0.00in /  0mm 0 W/m2
03:40 68.9 °F /  20.5 °C 62.5 °F /  16.9 °C 30.09in /  1018.8hPa Calm   2mph /  3.2km/h 80% 0.00in /  0mm 0 W/m2
03:45 68.9 °F /  20.5 °C 62.5 °F /  16.9 °C 30.08in /  1018.5hPa WNW 1mph /  1.6km/h 2mph /  3.2km/h 80% 0.00in /  0mm 0 W/m2
03:50 68.9 °F /  20.5 °C 62.5 °F /  16.9 °C 30.08in /  1018.5hPa Calm   2mph /  3.2km/h 80% 0.00in /  0mm 0 W/m2
04:00 68.9 °F /  20.5 °C 62.8 °F /  17.1 °C 30.08in /  1018.5hPa WNW 1mph /  1.6km/h 2mph /  3.2km/h 81% 0.00in /  0mm 0 W/m2
04:10 68.7 °F /  20.4 °C 62.7 °F /  17.1 °C 30.08in /  1018.5hPa Calm   1mph /  1.6km/h 81% 0.00in /  0mm 0 W/m2
04:15 68.7 °F /  20.4 °C 62.7 °F /  17.1 °C 30.08in /  1018.5hPa WSW 1mph /  1.6km/h 2mph /  3.2km/h 81% 0.00in /  0mm 0 W/m2
04:20 68.5 °F /  20.3 °C 62.5 °F /  16.9 °C 30.08in /  1018.5hPa Calm   2mph /  3.2km/h 81% 0.00in /  0mm 0 W/m2
04:25 68.4 °F /  20.2 °C 62.4 °F /  16.9 °C 30.08in /  1018.5hPa Calm   2mph /  3.2km/h 81% 0.00in /  0mm 0 W/m2
04:30 68.4 °F /  20.2 °C 62.3 °F /  16.8 °C 30.08in /  1018.5hPa Calm   2mph /  3.2km/h 81% 0.00in /  0mm 0 W/m2
04:35 68.2 °F /  20.1 °C 62.5 °F /  16.9 °C 30.08in /  1018.5hPa WNW 1mph /  1.6km/h 2mph /  3.2km/h 82% 0.00in /  0mm 0 W/m2
04:40 68.2 °F /  20.1 °C 62.8 °F /  17.1 °C 30.08in /  1018.5hPa NW 2mph /  3.2km/h 2mph /  3.2km/h 83% 0.00in /  0mm 0 W/m2
04:45 68.2 °F /  20.1 °C 62.5 °F /  16.9 °C 30.09in /  1018.8hPa Calm   2mph /  3.2km/h 82% 0.00in /  0mm 0 W/m2
04:50 68.2 °F /  20.1 °C 62.1 °F /  16.7 °C 30.08in /  1018.5hPa Calm   1mph /  1.6km/h 81% 0.00in /  0mm 0 W/m2
04:55 68.2 °F /  20.1 °C 62.5 °F /  16.9 °C 30.08in /  1018.5hPa NW 1mph /  1.6km/h 2mph /  3.2km/h 82% 0.00in /  0mm 0 W/m2
05:00 68.4 °F /  20.2 °C 62.6 °F /  17 °C 30.08in /  1018.5hPa Calm   2mph /  3.2km/h 82% 0.00in /  0mm 0 W/m2
05:05 68.3 °F /  20.2 °C 62.9 °F /  17.2 °C 30.08in /  1018.5hPa Calm   2mph /  3.2km/h 83% 0.00in /  0mm 0 W/m2
05:10 68.2 °F /  20.1 °C 62.8 °F /  17.1 °C 30.08in /  1018.5hPa Calm   2mph /  3.2km/h 83% 0.00in /  0mm 0 W/m2
05:15 68.2 °F /  20.1 °C 62.8 °F /  17.1 °C 30.08in /  1018.5hPa Calm   2mph /  3.2km/h 83% 0.00in /  0mm 0 W/m2
05:20 68 °F /  20 °C 62.6 °F /  17 °C 30.08in /  1018.5hPa Calm   1mph /  1.6km/h 83% 0.00in /  0mm 0 W/m2
05:25 67.8 °F /  19.9 °C 62.5 °F /  16.9 °C 30.09in /  1018.8hPa Calm   2mph /  3.2km/h 83% 0.00in /  0mm 0 W/m2
05:30 67.8 °F /  19.9 °C 62.8 °F /  17.1 °C 30.08in /  1018.5hPa Calm   1mph /  1.6km/h 84% 0.00in /  0mm 2 W/m2
05:35 67.6 °F /  19.8 °C 62.6 °F /  17 °C 30.08in /  1018.5hPa WSW 1mph /  1.6km/h 2mph /  3.2km/h 84% 0.00in /  0mm 3 W/m2
05:45 67.5 °F /  19.7 °C 62.5 °F /  16.9 °C 30.08in /  1018.5hPa Calm     84% 0.00in /  0mm 8 W/m2
05:55 67.5 °F /  19.7 °C 62.8 °F /  17.1 °C 30.09in /  1018.8hPa Calm   2mph /  3.2km/h 85% 0.00in /  0mm 18 W/m2
06:00 67.3 °F /  19.6 °C 62.6 °F /  17 °C 30.08in /  1018.5hPa Calm   1mph /  1.6km/h 85% 0.00in /  0mm 24 W/m2
06:05 67.3 °F /  19.6 °C 62.6 °F /  17 °C 30.09in /  1018.8hPa Calm   2mph /  3.2km/h 85% 0.00in /  0mm 30 W/m2
06:10 67.3 °F /  19.6 °C 62.6 °F /  17 °C 30.09in /  1018.8hPa NW 2mph /  3.2km/h 3mph /  4.8km/h 85% 0.00in /  0mm 38 W/m2
06:20 67.7 °F /  19.8 °C 63.1 °F /  17.3 °C 30.09in /  1018.8hPa NNE 2mph /  3.2km/h 5mph /  8km/h 85% 0.00in /  0mm 38 W/m2
06:25 67.8 °F /  19.9 °C 63.1 °F /  17.3 °C 30.09in /  1018.8hPa NNE 1mph /  1.6km/h 4mph /  6.4km/h 85% 0.00in /  0mm 39 W/m2
06:35 67.6 °F /  19.8 °C 63 °F /  17.2 °C 30.10in /  1019.2hPa Calm   2mph /  3.2km/h 85% 0.00in /  0mm 44 W/m2
06:45 67.3 °F /  19.6 °C 62.9 °F /  17.2 °C 30.10in /  1019.2hPa NNE 1mph /  1.6km/h 2mph /  3.2km/h 86% 0.00in /  0mm 51 W/m2
06:50 67.3 °F /  19.6 °C 62.6 °F /  17 °C 30.10in /  1019.2hPa Calm   2mph /  3.2km/h 85% 0.00in /  0mm 53 W/m2
06:55 67.3 °F /  19.6 °C 62.9 °F /  17.2 °C 30.11in /  1019.5hPa Calm   2mph /  3.2km/h 86% 0.00in /  0mm 53 W/m2
07:00 67.3 °F /  19.6 °C 62.9 °F /  17.2 °C 30.11in /  1019.5hPa Calm   2mph /  3.2km/h 86% 0.00in /  0mm 60 W/m2
07:05 67.3 °F /  19.6 °C 62.9 °F /  17.2 °C 30.11in /  1019.5hPa Calm   2mph /  3.2km/h 86% 0.00in /  0mm 72 W/m2
07:20 67.6 °F /  19.8 °C 63.3 °F /  17.4 °C 30.12in /  1019.9hPa SW 1mph /  1.6km/h 2mph /  3.2km/h 86% 0.00in /  0mm 92 W/m2
07:30 67.8 °F /  19.9 °C 63.5 °F /  17.5 °C 30.12in /  1019.9hPa WSW 1mph /  1.6km/h 3mph /  4.8km/h 86% 0.00in /  0mm 100 W/m2
07:35 68 °F /  20 °C 63.7 °F /  17.6 °C 30.12in /  1019.9hPa Calm   2mph /  3.2km/h 86% 0.00in /  0mm 91 W/m2
07:40 68 °F /  20 °C 63.3 °F /  17.4 °C 30.12in /  1019.9hPa West 2mph /  3.2km/h 3mph /  4.8km/h 85% 0.00in /  0mm 82 W/m2
07:45 68.2 °F /  20.1 °C 63.5 °F /  17.5 °C 30.12in /  1019.9hPa Calm   2mph /  3.2km/h 85% 0.00in /  0mm 95 W/m2
07:50 68.2 °F /  20.1 °C 63.5 °F /  17.5 °C 30.12in /  1019.9hPa Calm   2mph /  3.2km/h 85% 0.00in /  0mm 248 W/m2
07:55 68.4 °F /  20.2 °C 63.7 °F /  17.6 °C 30.12in /  1019.9hPa Calm   2mph /  3.2km/h 85% 0.00in /  0mm 126 W/m2
08:00 68.7 °F /  20.4 °C 64 °F /  17.8 °C 30.12in /  1019.9hPa Calm   1mph /  1.6km/h 85% 0.00in /  0mm 131 W/m2
08:05 68.9 °F /  20.5 °C 64.5 °F /  18.1 °C 30.12in /  1019.9hPa SW 1mph /  1.6km/h 2mph /  3.2km/h 86% 0.00in /  0mm 156 W/m2
08:10 69.3 °F /  20.7 °C 64.6 °F /  18.1 °C 30.12in /  1019.9hPa WSW 1mph /  1.6km/h 2mph /  3.2km/h 85% 0.00in /  0mm 169 W/m2
08:15 69.6 °F /  20.9 °C 64.9 °F /  18.3 °C 30.12in /  1019.9hPa NW 1mph /  1.6km/h 3mph /  4.8km/h 85% 0.00in /  0mm 254 W/m2
08:20 70 °F /  21.1 °C 64.9 °F /  18.3 °C 30.12in /  1019.9hPa Calm   2mph /  3.2km/h 84% 0.00in /  0mm 312 W/m2
08:25 70.6 °F /  21.4 °C 65.6 °F /  18.7 °C 30.12in /  1019.9hPa Calm   4mph /  6.4km/h 84% 0.00in /  0mm 340 W/m2
08:30 71.1 °F /  21.7 °C 65.6 °F /  18.7 °C 30.12in /  1019.9hPa NNE 1mph /  1.6km/h 3mph /  4.8km/h 83% 0.00in /  0mm 235 W/m2
08:35 71.4 °F /  21.9 °C 65.6 °F /  18.7 °C 30.12in /  1019.9hPa NE 1mph /  1.6km/h 5mph /  8km/h 82% 0.00in /  0mm 225 W/m2
08:40 71.8 °F /  22.1 °C 65.6 °F /  18.7 °C 30.12in /  1019.9hPa NE 3mph /  4.8km/h 5mph /  8km/h 81% 0.00in /  0mm 525 W/m2
08:45 72.5 °F /  22.5 °C 66 °F /  18.9 °C 30.12in /  1019.9hPa NE 1mph /  1.6km/h 5mph /  8km/h 80% 0.00in /  0mm 539 W/m2
08:50 73.5 °F /  23.1 °C 66.5 °F /  19.2 °C 30.12in /  1019.9hPa East 2mph /  3.2km/h 4mph /  6.4km/h 79% 0.00in /  0mm 554 W/m2
09:00 74.8 °F /  23.8 °C 67.1 °F /  19.5 °C 30.12in /  1019.9hPa East 1mph /  1.6km/h 4mph /  6.4km/h 77% 0.00in /  0mm 383 W/m2
09:15 75 °F /  23.9 °C 66.6 °F /  19.2 °C 30.12in /  1019.9hPa SSW 1mph /  1.6km/h 3mph /  4.8km/h 75% 0.00in /  0mm 288 W/m2
09:25 77 °F /  25 °C 67.7 °F /  19.8 °C 30.12in /  1019.9hPa North 1mph /  1.6km/h 7mph /  11.3km/h 73% 0.00in /  0mm 649 W/m2
09:30 78.2 °F /  25.7 °C 68.5 °F /  20.3 °C 30.12in /  1019.9hPa South 3mph /  4.8km/h 6mph /  9.7km/h 72% 0.00in /  0mm 658 W/m2
09:40 79.5 °F /  26.4 °C 68.4 °F /  20.2 °C 30.12in /  1019.9hPa NW 2mph /  3.2km/h 12mph /  19.3km/h 69% 0.00in /  0mm 687 W/m2
09:45 80.2 °F /  26.8 °C 68.2 °F /  20.1 °C 30.12in /  1019.9hPa North 2mph /  3.2km/h 8mph /  12.9km/h 67% 0.00in /  0mm 696 W/m2
09:50 80.7 °F /  27.1 °C 68.3 °F /  20.2 °C 30.12in /  1019.9hPa NNW 3mph /  4.8km/h 8mph /  12.9km/h 66% 0.00in /  0mm 704 W/m2
09:55 81.2 °F /  27.3 °C 68.3 °F /  20.2 °C 30.12in /  1019.9hPa North 3mph /  4.8km/h 13mph /  20.9km/h 65% 0.00in /  0mm 709 W/m2
10:00 81.7 °F /  27.6 °C 67.9 °F /  19.9 °C 30.12in /  1019.9hPa North 3mph /  4.8km/h 8mph /  12.9km/h 63% 0.00in /  0mm 718 W/m2
10:05 82 °F /  27.8 °C 67.7 °F /  19.8 °C 30.12in /  1019.9hPa North 8mph /  12.9km/h 13mph /  20.9km/h 62% 0.00in /  0mm 725 W/m2
10:10 82.3 °F /  27.9 °C 68.5 °F /  20.3 °C 30.12in /  1019.9hPa North 3mph /  4.8km/h 13mph /  20.9km/h 63% 0.00in /  0mm 741 W/m2
10:15 82.9 °F /  28.3 °C 68 °F /  20 °C 30.12in /  1019.9hPa North 7mph /  11.3km/h 12mph /  19.3km/h 61% 0.00in /  0mm 752 W/m2
10:20 83.1 °F /  28.4 °C 67.7 °F /  19.8 °C 30.11in /  1019.5hPa North 5mph /  8km/h 11mph /  17.7km/h 60% 0.00in /  0mm 767 W/m2
10:25 83.3 °F /  28.5 °C 68 °F /  20 °C 30.12in /  1019.9hPa North 6mph /  9.7km/h 13mph /  20.9km/h 60% 0.00in /  0mm 778 W/m2
10:30 83.6 °F /  28.7 °C 67.8 °F /  19.9 °C 30.11in /  1019.5hPa North 2mph /  3.2km/h 7mph /  11.3km/h 59% 0.00in /  0mm 788 W/m2
10:35 84 °F /  28.9 °C 68.1 °F /  20.1 °C 30.11in /  1019.5hPa NNW 5mph /  8km/h 8mph /  12.9km/h 59% 0.00in /  0mm 789 W/m2
10:40 84 °F /  28.9 °C 67.7 °F /  19.8 °C 30.11in /  1019.5hPa North 5mph /  8km/h 9mph /  14.5km/h 58% 0.00in /  0mm 806 W/m2
10:45 84.2 °F /  29 °C 68.3 °F /  20.2 °C 30.11in /  1019.5hPa North 5mph /  8km/h 9mph /  14.5km/h 59% 0.00in /  0mm 691 W/m2
10:50 84.7 °F /  29.3 °C 68.3 °F /  20.2 °C 30.11in /  1019.5hPa NNE 5mph /  8km/h 9mph /  14.5km/h 58% 0.00in /  0mm 170 W/m2
10:55 84.9 °F /  29.4 °C 68 °F /  20 °C 30.10in /  1019.2hPa NNE 5mph /  8km/h 10mph /  16.1km/h 57% 0.00in /  0mm 820 W/m2
11:00 85.1 °F /  29.5 °C 68.2 °F /  20.1 °C 30.10in /  1019.2hPa North 3mph /  4.8km/h 9mph /  14.5km/h 57% 0.00in /  0mm 839 W/m2
11:10 85.6 °F /  29.8 °C 68.7 °F /  20.4 °C 30.10in /  1019.2hPa NNE 5mph /  8km/h 11mph /  17.7km/h 57% 0.00in /  0mm 230 W/m2
11:15 85.6 °F /  29.8 °C 68.7 °F /  20.4 °C 30.10in /  1019.2hPa North 3mph /  4.8km/h 12mph /  19.3km/h 57% 0.00in /  0mm 857 W/m2
11:20 86 °F /  30 °C 68.5 °F /  20.3 °C 30.10in /  1019.2hPa North 6mph /  9.7km/h 13mph /  20.9km/h 56% 0.00in /  0mm 187 W/m2
11:25 86.2 °F /  30.1 °C 69.2 °F /  20.7 °C 30.10in /  1019.2hPa North 3mph /  4.8km/h 10mph /  16.1km/h 57% 0.00in /  0mm 876 W/m2
11:30 86.5 °F /  30.3 °C 68.4 °F /  20.2 °C 30.10in /  1019.2hPa NNE 5mph /  8km/h 13mph /  20.9km/h 55% 0.00in /  0mm 881 W/m2
11:40 86.7 °F /  30.4 °C 68.6 °F /  20.3 °C 30.10in /  1019.2hPa NNW 5mph /  8km/h 9mph /  14.5km/h 55% 0.00in /  0mm 890 W/m2
11:45 86.7 °F /  30.4 °C 68.6 °F /  20.3 °C 30.09in /  1018.8hPa North 6mph /  9.7km/h 9mph /  14.5km/h 55% 0.00in /  0mm 894 W/m2
11:50 87.4 °F /  30.8 °C 68.2 °F /  20.1 °C 30.10in /  1019.2hPa North 5mph /  8km/h 11mph /  17.7km/h 53% 0.00in /  0mm 898 W/m2
11:55 87.3 °F /  30.7 °C 68.6 °F /  20.3 °C 30.09in /  1018.8hPa North 2mph /  3.2km/h 13mph /  20.9km/h 54% 0.00in /  0mm 901 W/m2
12:00 87.6 °F /  30.9 °C 68.9 °F /  20.5 °C 30.09in /  1018.8hPa North 5mph /  8km/h 8mph /  12.9km/h 54% 0.00in /  0mm 904 W/m2
12:05 87.9 °F /  31.1 °C 68.7 °F /  20.4 °C 30.09in /  1018.8hPa NNE 3mph /  4.8km/h 13mph /  20.9km/h 53% 0.00in /  0mm 907 W/m2
12:10 88.2 °F /  31.2 °C 69.4 °F /  20.8 °C 30.09in /  1018.8hPa North 6mph /  9.7km/h 12mph /  19.3km/h 54% 0.00in /  0mm 909 W/m2
12:15 88.5 °F /  31.4 °C 69.2 °F /  20.7 °C 30.09in /  1018.8hPa North 7mph /  11.3km/h 14mph /  22.5km/h 53% 0.00in /  0mm 911 W/m2
12:20 88.3 °F /  31.3 °C 69 °F /  20.6 °C 30.09in /  1018.8hPa NNE 6mph /  9.7km/h 14mph /  22.5km/h 53% 0.00in /  0mm 912 W/m2
12:25 88.5 °F /  31.4 °C 69.2 °F /  20.7 °C 30.08in /  1018.5hPa North 5mph /  8km/h 14mph /  22.5km/h 53% 0.00in /  0mm 913 W/m2
12:30 88.3 °F /  31.3 °C 69 °F /  20.6 °C 30.08in /  1018.5hPa NNW 3mph /  4.8km/h 10mph /  16.1km/h 53% 0.00in /  0mm 914 W/m2
12:35 88.5 °F /  31.4 °C 68.6 °F /  20.3 °C 30.08in /  1018.5hPa North 7mph /  11.3km/h 12mph /  19.3km/h 52% 0.00in /  0mm 914 W/m2
12:40 88.7 °F /  31.5 °C 69.4 °F /  20.8 °C 30.08in /  1018.5hPa North 6mph /  9.7km/h 13mph /  20.9km/h 53% 0.00in /  0mm 914 W/m2
12:45 89.1 °F /  31.7 °C 69.1 °F /  20.6 °C 30.08in /  1018.5hPa North 5mph /  8km/h 14mph /  22.5km/h 52% 0.00in /  0mm 913 W/m2
12:50 89.5 °F /  31.9 °C 69.6 °F /  20.9 °C 30.08in /  1018.5hPa North 6mph /  9.7km/h 12mph /  19.3km/h 52% 0.00in /  0mm 912 W/m2
12:55 89.6 °F /  32 °C 68.5 °F /  20.3 °C 30.08in /  1018.5hPa North 5mph /  8km/h 13mph /  20.9km/h 50% 0.00in /  0mm 911 W/m2
13:00 89.8 °F /  32.1 °C 68.7 °F /  20.4 °C 30.08in /  1018.5hPa North 6mph /  9.7km/h 12mph /  19.3km/h 50% 0.00in /  0mm 909 W/m2
13:05 90.1 °F /  32.3 °C 68.9 °F /  20.5 °C 30.07in /  1018.2hPa North 6mph /  9.7km/h 13mph /  20.9km/h 50% 0.00in /  0mm 907 W/m2
13:10 90.3 °F /  32.4 °C 68.6 °F /  20.3 °C 30.07in /  1018.2hPa North 6mph /  9.7km/h 14mph /  22.5km/h 49% 0.00in /  0mm 904 W/m2
13:15 90.4 °F /  32.4 °C 68.1 °F /  20.1 °C 30.07in /  1018.2hPa NNE 6mph /  9.7km/h 13mph /  20.9km/h 48% 0.00in /  0mm 901 W/m2
13:20 90.5 °F /  32.5 °C 67.5 °F /  19.7 °C 30.07in /  1018.2hPa North 7mph /  11.3km/h 14mph /  22.5km/h 47% 0.00in /  0mm 407 W/m2
13:25 89.9 °F /  32.2 °C 67.6 °F /  19.8 °C 30.07in /  1018.2hPa North 6mph /  9.7km/h 14mph /  22.5km/h 48% 0.00in /  0mm 482 W/m2
13:30 88.9 °F /  31.6 °C 67.3 °F /  19.6 °C 30.06in /  1017.8hPa North 6mph /  9.7km/h 13mph /  20.9km/h 49% 0.00in /  0mm 288 W/m2
13:35 89 °F /  31.7 °C 68 °F /  20 °C 30.06in /  1017.8hPa North 7mph /  11.3km/h 13mph /  20.9km/h 50% 0.00in /  0mm 886 W/m2
13:40 89.5 °F /  31.9 °C 67.3 °F /  19.6 °C 30.06in /  1017.8hPa North 7mph /  11.3km/h 16mph /  25.7km/h 48% 0.00in /  0mm 881 W/m2
13:50 90.1 °F /  32.3 °C 67.8 °F /  19.9 °C 30.06in /  1017.8hPa North 6mph /  9.7km/h 13mph /  20.9km/h 48% 0.00in /  0mm 870 W/m2
14:00 90.9 °F /  32.7 °C 67.8 °F /  19.9 °C 30.05in /  1017.5hPa North 8mph /  12.9km/h 15mph /  24.1km/h 47% 0.00in /  0mm 857 W/m2
14:05 90.9 °F /  32.7 °C 67.8 °F /  19.9 °C 30.05in /  1017.5hPa NNE 6mph /  9.7km/h 13mph /  20.9km/h 47% 0.00in /  0mm 851 W/m2
14:10 90.7 °F /  32.6 °C 68.3 °F /  20.2 °C 30.05in /  1017.5hPa North 6mph /  9.7km/h 13mph /  20.9km/h 48% 0.00in /  0mm 844 W/m2
14:15 91 °F /  32.8 °C 68 °F /  20 °C 30.05in /  1017.5hPa North 7mph /  11.3km/h 15mph /  24.1km/h 47% 0.00in /  0mm 836 W/m2
14:20 91.2 °F /  32.9 °C 68.8 °F /  20.4 °C 30.05in /  1017.5hPa North 6mph /  9.7km/h 12mph /  19.3km/h 48% 0.00in /  0mm 829 W/m2
14:25 91.4 °F /  33 °C 67.7 °F /  19.8 °C 30.04in /  1017.2hPa North 5mph /  8km/h 16mph /  25.7km/h 46% 0.00in /  0mm 244 W/m2
14:30 90.9 °F /  32.7 °C 68.5 °F /  20.3 °C 30.04in /  1017.2hPa North 2mph /  3.2km/h 13mph /  20.9km/h 48% 0.00in /  0mm 438 W/m2
14:35 90.9 °F /  32.7 °C 66.6 °F /  19.2 °C 30.04in /  1017.2hPa North 8mph /  12.9km/h 14mph /  22.5km/h 45% 0.00in /  0mm 803 W/m2
14:40 91.3 °F /  32.9 °C 68.3 °F /  20.2 °C 30.04in /  1017.2hPa North 5mph /  8km/h 14mph /  22.5km/h 47% 0.00in /  0mm 794 W/m2
14:45 91.4 °F /  33 °C 68.3 °F /  20.2 °C 30.04in /  1017.2hPa North 3mph /  4.8km/h 13mph /  20.9km/h 47% 0.00in /  0mm 258 W/m2
14:50 91.4 °F /  33 °C 68.3 °F /  20.2 °C 30.04in /  1017.2hPa NNE 5mph /  8km/h 10mph /  16.1km/h 47% 0.00in /  0mm 265 W/m2
14:55 91.1 °F /  32.8 °C 66.1 °F /  18.9 °C 30.04in /  1017.2hPa North 5mph /  8km/h 10mph /  16.1km/h 44% 0.00in /  0mm 765 W/m2
15:00 91.2 °F /  32.9 °C 66.3 °F /  19.1 °C 30.04in /  1017.2hPa NNE 3mph /  4.8km/h 10mph /  16.1km/h 44% 0.00in /  0mm 754 W/m2
15:05 91.5 °F /  33.1 °C 67.2 °F /  19.6 °C 30.04in /  1017.2hPa NNE 5mph /  8km/h 11mph /  17.7km/h 45% 0.00in /  0mm 744 W/m2
15:10 91.8 °F /  33.2 °C 67.4 °F /  19.7 °C 30.03in /  1016.8hPa North 5mph /  8km/h 13mph /  20.9km/h 45% 0.00in /  0mm 358 W/m2
15:15 91.3 °F /  32.9 °C 66.3 °F /  19.1 °C 30.04in /  1017.2hPa North 5mph /  8km/h 10mph /  16.1km/h 44% 0.00in /  0mm 200 W/m2
15:20 90.4 °F /  32.4 °C 64.8 °F /  18.2 °C 30.04in /  1017.2hPa North 5mph /  8km/h 11mph /  17.7km/h 43% 0.00in /  0mm 162 W/m2
15:25 89.6 °F /  32 °C 65.5 °F /  18.6 °C 30.04in /  1017.2hPa North 1mph /  1.6km/h 6mph /  9.7km/h 45% 0.00in /  0mm 191 W/m2
15:30 89.3 °F /  31.8 °C 65.2 °F /  18.4 °C 30.03in /  1016.8hPa NNW 2mph /  3.2km/h 6mph /  9.7km/h 45% 0.00in /  0mm 174 W/m2
15:35 89.2 °F /  31.8 °C 66.3 °F /  19.1 °C 30.03in /  1016.8hPa NNE 3mph /  4.8km/h 9mph /  14.5km/h 47% 0.00in /  0mm 674 W/m2
15:40 89.7 °F /  32.1 °C 66.8 °F /  19.3 °C 30.03in /  1016.8hPa NNE 3mph /  4.8km/h 9mph /  14.5km/h 47% 0.00in /  0mm 558 W/m2
15:45 90.1 °F /  32.3 °C 65.9 °F /  18.8 °C 30.03in /  1016.8hPa NNW 3mph /  4.8km/h 8mph /  12.9km/h 45% 0.00in /  0mm 648 W/m2
15:50 90.5 °F /  32.5 °C 65.6 °F /  18.7 °C 30.03in /  1016.8hPa NNW 3mph /  4.8km/h 8mph /  12.9km/h 44% 0.00in /  0mm 612 W/m2
15:55 90.5 °F /  32.5 °C 64.3 °F /  17.9 °C 30.03in /  1016.8hPa North 6mph /  9.7km/h 10mph /  16.1km/h 42% 0.00in /  0mm 209 W/m2
16:00 90.3 °F /  32.4 °C 64.8 °F /  18.2 °C 30.03in /  1016.8hPa North 2mph /  3.2km/h 8mph /  12.9km/h 43% 0.00in /  0mm 185 W/m2
16:05 90 °F /  32.2 °C 65.8 °F /  18.8 °C 30.02in /  1016.5hPa North 2mph /  3.2km/h 7mph /  11.3km/h 45% 0.00in /  0mm 595 W/m2
16:10 90.5 °F /  32.5 °C 64.3 °F /  17.9 °C 30.02in /  1016.5hPa NNE 2mph /  3.2km/h 7mph /  11.3km/h 42% 0.00in /  0mm 562 W/m2
16:15 90.9 °F /  32.7 °C 65.3 °F /  18.5 °C 30.02in /  1016.5hPa NE 1mph /  1.6km/h 9mph /  14.5km/h 43% 0.00in /  0mm 567 W/m2
16:20 91.4 °F /  33 °C 65 °F /  18.3 °C 30.02in /  1016.5hPa NNE 3mph /  4.8km/h 12mph /  19.3km/h 42% 0.00in /  0mm 553 W/m2
16:25 91.6 °F /  33.1 °C 65.2 °F /  18.4 °C 30.02in /  1016.5hPa NE 3mph /  4.8km/h 7mph /  11.3km/h 42% 0.00in /  0mm 538 W/m2
16:30 91.7 °F /  33.2 °C 64 °F /  17.8 °C 30.02in /  1016.5hPa NE 3mph /  4.8km/h 8mph /  12.9km/h 40% 0.00in /  0mm 524 W/m2
16:35 91.9 °F /  33.3 °C 64.2 °F /  17.9 °C 30.02in /  1016.5hPa ENE 7mph /  11.3km/h 12mph /  19.3km/h 40% 0.00in /  0mm 509 W/m2
16:45 91.4 °F /  33 °C 63 °F /  17.2 °C 30.02in /  1016.5hPa NE 6mph /  9.7km/h 12mph /  19.3km/h 39% 0.00in /  0mm 479 W/m2
16:50 91.1 °F /  32.8 °C 63.4 °F /  17.4 °C 30.02in /  1016.5hPa ENE 6mph /  9.7km/h 11mph /  17.7km/h 40% 0.00in /  0mm 416 W/m2
16:55 90.7 °F /  32.6 °C 64.4 °F /  18 °C 30.02in /  1016.5hPa East 2mph /  3.2km/h 10mph /  16.1km/h 42% 0.00in /  0mm 156 W/m2
17:10 88.7 °F /  31.5 °C 64.7 °F /  18.2 °C 30.02in /  1016.5hPa NE 5mph /  8km/h 12mph /  19.3km/h 45% 0.00in /  0mm 174 W/m2
17:15 88.3 °F /  31.3 °C 63.7 °F /  17.6 °C 30.02in /  1016.5hPa ENE 3mph /  4.8km/h 10mph /  16.1km/h 44% 0.00in /  0mm 162 W/m2
17:20 88 °F /  31.1 °C 63.4 °F /  17.4 °C 30.03in /  1016.8hPa East 3mph /  4.8km/h 8mph /  12.9km/h 44% 0.00in /  0mm 372 W/m2
17:30 88.5 °F /  31.4 °C 64.5 °F /  18.1 °C 30.03in /  1016.8hPa East 6mph /  9.7km/h 13mph /  20.9km/h 45% 0.00in /  0mm 213 W/m2
17:35 88.3 °F /  31.3 °C 65.5 °F /  18.6 °C 30.03in /  1016.8hPa ESE 6mph /  9.7km/h 13mph /  20.9km/h 47% 0.00in /  0mm 168 W/m2
17:40 88 °F /  31.1 °C 65.3 °F /  18.5 °C 30.02in /  1016.5hPa ESE 6mph /  9.7km/h 14mph /  22.5km/h 47% 0.00in /  0mm 232 W/m2
17:45 88 °F /  31.1 °C 65.8 °F /  18.8 °C 30.02in /  1016.5hPa ESE 3mph /  4.8km/h 8mph /  12.9km/h 48% 0.00in /  0mm 236 W/m2
17:50 88 °F /  31.1 °C 65.8 °F /  18.8 °C 30.02in /  1016.5hPa East 3mph /  4.8km/h 7mph /  11.3km/h 48% 0.00in /  0mm 143 W/m2
17:55 87.7 °F /  30.9 °C 64.9 °F /  18.3 °C 30.02in /  1016.5hPa East 2mph /  3.2km/h 8mph /  12.9km/h 47% 0.00in /  0mm 104 W/m2
18:10 86.5 °F /  30.3 °C 63.9 °F /  17.7 °C 30.03in /  1016.8hPa ENE 3mph /  4.8km/h 7mph /  11.3km/h 47% 0.00in /  0mm 62 W/m2
18:15 86.4 °F /  30.2 °C 64.4 °F /  18 °C 30.03in /  1016.8hPa NE 1mph /  1.6km/h 6mph /  9.7km/h 48% 0.00in /  0mm 59 W/m2
18:20 86 °F /  30 °C 64.6 °F /  18.1 °C 30.03in /  1016.8hPa ENE 1mph /  1.6km/h 5mph /  8km/h 49% 0.00in /  0mm 61 W/m2
18:25 85.8 °F /  29.9 °C 63.9 °F /  17.7 °C 30.03in /  1016.8hPa ENE 1mph /  1.6km/h 3mph /  4.8km/h 48% 0.00in /  0mm 78 W/m2
18:30 85.8 °F /  29.9 °C 64.4 °F /  18 °C 30.03in /  1016.8hPa West 1mph /  1.6km/h 2mph /  3.2km/h 49% 0.00in /  0mm 92 W/m2
18:35 85.6 °F /  29.8 °C 64.9 °F /  18.3 °C 30.03in /  1016.8hPa WSW 1mph /  1.6km/h 2mph /  3.2km/h 50% 0.00in /  0mm 101 W/m2
18:45 85.3 °F /  29.6 °C 64.6 °F /  18.1 °C 30.03in /  1016.8hPa WNW 3mph /  4.8km/h 6mph /  9.7km/h 50% 0.00in /  0mm 45 W/m2
18:50 84.8 °F /  29.3 °C 65.2 °F /  18.4 °C 30.04in /  1017.2hPa WNW 3mph /  4.8km/h 6mph /  9.7km/h 52% 0.00in /  0mm 33 W/m2
18:55 84.2 °F /  29 °C 65.2 °F /  18.4 °C 30.04in /  1017.2hPa NW 3mph /  4.8km/h 10mph /  16.1km/h 53% 0.00in /  0mm 29 W/m2
19:00 83.8 °F /  28.8 °C 64.3 °F /  17.9 °C 30.04in /  1017.2hPa NNW 5mph /  8km/h 11mph /  17.7km/h 52% 0.00in /  0mm 32 W/m2
19:05 83.5 °F /  28.6 °C 64.5 °F /  18.1 °C 30.04in /  1017.2hPa NNW 3mph /  4.8km/h 10mph /  16.1km/h 53% 0.00in /  0mm 29 W/m2
19:10 83.3 °F /  28.5 °C 64.9 °F /  18.3 °C 30.04in /  1017.2hPa NNW 2mph /  3.2km/h 5mph /  8km/h 54% 0.00in /  0mm 28 W/m2
19:15 83 °F /  28.3 °C 65.1 °F /  18.4 °C 30.05in /  1017.5hPa NW 2mph /  3.2km/h 6mph /  9.7km/h 55% 0.00in /  0mm 25 W/m2
19:25 82.1 °F /  27.8 °C 65.3 °F /  18.5 °C 30.05in /  1017.5hPa WNW 2mph /  3.2km/h 5mph /  8km/h 57% 0.00in /  0mm 18 W/m2
19:30 81.5 °F /  27.5 °C 64.8 °F /  18.2 °C 30.06in /  1017.8hPa WNW 2mph /  3.2km/h 7mph /  11.3km/h 57% 0.00in /  0mm 14 W/m2
19:35 81 °F /  27.2 °C 64.3 °F /  17.9 °C 30.06in /  1017.8hPa WNW 3mph /  4.8km/h 6mph /  9.7km/h 57% 0.00in /  0mm 9 W/m2
19:40 80.6 °F /  27 °C 64.5 °F /  18.1 °C 30.06in /  1017.8hPa WNW 2mph /  3.2km/h 6mph /  9.7km/h 58% 0.00in /  0mm 5 W/m2
19:45 80.2 °F /  26.8 °C 64.1 °F /  17.8 °C 30.06in /  1017.8hPa West 3mph /  4.8km/h 6mph /  9.7km/h 58% 0.00in /  0mm 0 W/m2
19:50 79.9 °F /  26.6 °C 63.8 °F /  17.7 °C 30.07in /  1018.2hPa West 3mph /  4.8km/h 6mph /  9.7km/h 58% 0.00in /  0mm 0 W/m2
19:55 79.5 °F /  26.4 °C 63.9 °F /  17.7 °C 30.06in /  1017.8hPa West 3mph /  4.8km/h 6mph /  9.7km/h 59% 0.00in /  0mm 0 W/m2
20:00 79.2 °F /  26.2 °C 63.6 °F /  17.6 °C 30.07in /  1018.2hPa West 2mph /  3.2km/h 6mph /  9.7km/h 59% 0.00in /  0mm 0 W/m2
20:05 79 °F /  26.1 °C 63.4 °F /  17.4 °C 30.07in /  1018.2hPa WNW 2mph /  3.2km/h 6mph /  9.7km/h 59% 0.00in /  0mm 0 W/m2
20:10 78.6 °F /  25.9 °C 63.6 °F /  17.6 °C 30.08in /  1018.5hPa WNW 2mph /  3.2km/h 4mph /  6.4km/h 60% 0.00in /  0mm 0 W/m2
20:15 78.4 °F /  25.8 °C 63.4 °F /  17.4 °C 30.08in /  1018.5hPa NW 1mph /  1.6km/h 4mph /  6.4km/h 60% 0.00in /  0mm 0 W/m2
20:20 78.3 °F /  25.7 °C 64.2 °F /  17.9 °C 30.08in /  1018.5hPa WNW 2mph /  3.2km/h 6mph /  9.7km/h 62% 0.00in /  0mm 0 W/m2
20:25 77.9 °F /  25.5 °C 63.9 °F /  17.7 °C 30.08in /  1018.5hPa WNW 2mph /  3.2km/h 5mph /  8km/h 62% 0.00in /  0mm 0 W/m2
20:35 77.4 °F /  25.2 °C 63.8 °F /  17.7 °C 30.08in /  1018.5hPa WNW 1mph /  1.6km/h 5mph /  8km/h 63% 0.00in /  0mm 0 W/m2
20:40 77.2 °F /  25.1 °C 63.6 °F /  17.6 °C 30.09in /  1018.8hPa WNW 1mph /  1.6km/h 3mph /  4.8km/h 63% 0.00in /  0mm 0 W/m2
20:45 77 °F /  25 °C 63.9 °F /  17.7 °C 30.09in /  1018.8hPa WNW 2mph /  3.2km/h 4mph /  6.4km/h 64% 0.00in /  0mm 0 W/m2
20:50 76.7 °F /  24.8 °C 63.6 °F /  17.6 °C 30.09in /  1018.8hPa WNW 2mph /  3.2km/h 3mph /  4.8km/h 64% 0.00in /  0mm 0 W/m2
21:05 75.9 °F /  24.4 °C 63.3 °F /  17.4 °C 30.09in /  1018.8hPa WSW 1mph /  1.6km/h 2mph /  3.2km/h 65% 0.00in /  0mm 0 W/m2
21:10 75.4 °F /  24.1 °C 63.7 °F /  17.6 °C 30.09in /  1018.8hPa SSW 2mph /  3.2km/h 3mph /  4.8km/h 67% 0.00in /  0mm 0 W/m2
21:15 75 °F /  23.9 °C 63.3 °F /  17.4 °C 30.10in /  1019.2hPa Calm   2mph /  3.2km/h 67% 0.00in /  0mm 0 W/m2
21:20 74.5 °F /  23.6 °C 63.2 °F /  17.3 °C 30.10in /  1019.2hPa SW 1mph /  1.6km/h 2mph /  3.2km/h 68% 0.00in /  0mm 0 W/m2
21:25 74.1 °F /  23.4 °C 63.3 °F /  17.4 °C 30.10in /  1019.2hPa SSE 2mph /  3.2km/h 3mph /  4.8km/h 69% 0.00in /  0mm 0 W/m2
21:30 73.9 °F /  23.3 °C 63.1 °F /  17.3 °C 30.10in /  1019.2hPa Calm   3mph /  4.8km/h 69% 0.00in /  0mm 0 W/m2
21:35 73.8 °F /  23.2 °C 63 °F /  17.2 °C 30.10in /  1019.2hPa Calm     69% 0.00in /  0mm 0 W/m2
21:45 73.2 °F /  22.9 °C 62.8 °F /  17.1 °C 30.10in /  1019.2hPa West 2mph /  3.2km/h 3mph /  4.8km/h 70% 0.00in /  0mm 0 W/m2
21:50 73 °F /  22.8 °C 63.5 °F /  17.5 °C 30.10in /  1019.2hPa WSW 1mph /  1.6km/h 3mph /  4.8km/h 72% 0.00in /  0mm 0 W/m2
22:00 72.7 °F /  22.6 °C 63.1 °F /  17.3 °C 30.10in /  1019.2hPa NW 1mph /  1.6km/h 2mph /  3.2km/h 72% 0.00in /  0mm 0 W/m2
22:05 72.5 °F /  22.5 °C 63 °F /  17.2 °C 30.10in /  1019.2hPa WNW 1mph /  1.6km/h 2mph /  3.2km/h 72% 0.00in /  0mm 0 W/m2
22:10 72.3 °F /  22.4 °C 63.2 °F /  17.3 °C 30.10in /  1019.2hPa WNW 2mph /  3.2km/h 4mph /  6.4km/h 73% 0.00in /  0mm 0 W/m2
22:15 72.1 °F /  22.3 °C 63 °F /  17.2 °C 30.10in /  1019.2hPa WNW 2mph /  3.2km/h 4mph /  6.4km/h 73% 0.00in /  0mm 0 W/m2
22:25 72.1 °F /  22.3 °C 63 °F /  17.2 °C 30.10in /  1019.2hPa Calm   2mph /  3.2km/h 73% 0.00in /  0mm 0 W/m2
22:30 72 °F /  22.2 °C 62.8 °F /  17.1 °C 30.11in /  1019.5hPa Calm   2mph /  3.2km/h 73% 0.00in /  0mm 0 W/m2
22:35 71.8 °F /  22.1 °C 63 °F /  17.2 °C 30.11in /  1019.5hPa Calm   3mph /  4.8km/h 74% 0.00in /  0mm 0 W/m2
22:40 71.6 °F /  22 °C 62.9 °F /  17.2 °C 30.11in /  1019.5hPa NW 1mph /  1.6km/h 3mph /  4.8km/h 74% 0.00in /  0mm 0 W/m2
22:45 71.2 °F /  21.8 °C 62.5 °F /  16.9 °C 30.11in /  1019.5hPa West 1mph /  1.6km/h 2mph /  3.2km/h 74% 0.00in /  0mm 0 W/m2
22:50 70.9 °F /  21.6 °C 62.6 °F /  17 °C 30.10in /  1019.2hPa SW 2mph /  3.2km/h 2mph /  3.2km/h 75% 0.00in /  0mm 0 W/m2
22:55 70.4 °F /  21.3 °C 62.1 °F /  16.7 °C 30.10in /  1019.2hPa SSW 2mph /  3.2km/h 4mph /  6.4km/h 75% 0.00in /  0mm 0 W/m2
23:00 70 °F /  21.1 °C 62.8 °F /  17.1 °C 30.10in /  1019.2hPa South 3mph /  4.8km/h 5mph /  8km/h 78% 0.00in /  0mm 0 W/m2
23:05 69.6 °F /  20.9 °C 62.5 °F /  16.9 °C 30.10in /  1019.2hPa South 1mph /  1.6km/h 3mph /  4.8km/h 78% 0.00in /  0mm 0 W/m2
23:10 69.4 °F /  20.8 °C 62.6 °F /  17 °C 30.10in /  1019.2hPa SW 2mph /  3.2km/h 3mph /  4.8km/h 79% 0.00in /  0mm 0 W/m2
23:20 69.3 °F /  20.7 °C 62.5 °F /  16.9 °C 30.10in /  1019.2hPa WSW 2mph /  3.2km/h 4mph /  6.4km/h 79% 0.00in /  0mm 0 W/m2
23:25 69.3 °F /  20.7 °C 62.5 °F /  16.9 °C 30.10in /  1019.2hPa WSW 2mph /  3.2km/h 3mph /  4.8km/h 79% 0.00in /  0mm 0 W/m2
23:30 69.3 °F /  20.7 °C 62.8 °F /  17.1 °C 30.10in /  1019.2hPa West 3mph /  4.8km/h 5mph /  8km/h 80% 0.00in /  0mm 0 W/m2
23:35 69.4 °F /  20.8 °C 63 °F /  17.2 °C 30.09in /  1018.8hPa WNW 2mph /  3.2km/h 5mph /  8km/h 80% 0.00in /  0mm 0 W/m2
23:45 69.4 °F /  20.8 °C 62.6 °F /  17 °C 30.09in /  1018.8hPa SW 1mph /  1.6km/h 3mph /  4.8km/h 79% 0.00in /  0mm 0 W/m2
23:50 69.1 °F /  20.6 °C 62.7 °F /  17.1 °C 30.09in /  1018.8hPa WSW 1mph /  1.6km/h 4mph /  6.4km/h 80% 0.00in /  0mm 0 W/m2
23:55 69.1 °F /  20.6 °C 62.6 °F /  17 °C 30.09in /  1018.8hPa WSW 2mph /  3.2km/h 3mph /  4.8km/h 80% 0.00in /  0mm 0 W/m2
Knjazevac, Serbia
Compliments of Weather Underground - 2 mb